Terminal Aerodrome Forecast
Issued by NWS Twin Cities, MN

Home | Current Version | Previous Version | Graphics & Text | Print | Product List | Glossary On
Versions: 1 2 3 4 5 6 7 8 9 10 11 12 13 14 15 16 17 18 19
029
FTUS43 KMPX 052329
TAFEAU
TAF
KEAU 052329Z 0600/0624 14013KT P6SM OVC100
     FM060700 19008KT 3SM -SN BR OVC015 PROB30 0609/0613 1SM -SN BR
      OVC008
     FM061300 24010G18KT P6SM OVC015
     FM062000 24014G24KT P6SM OVC025=

USA.gov is the U.S. government's official web portal to all federal, state and local government web resources and services.